»·PEaware :: N338B KIFP-KBUR

N338B :: KIFP-KBUR

FLIGHT INFORMATION

Flight Status: Arrived
Operator: Privately registered:
United States
More flights under this callsign
Pilot: Christian A. (580)
Aircraft: CESSNA 550 CITATION 2/S2/BRAVO
(C550)
More flights by this aircraft type
Origin: KIFP Laughlin/Bullhead Intl
United States
Destination: KBUR Bob Hope-Burbank
United States
More flights between these airports :: More routes between these airports
Route: +EED HEC LYNXX8
File this flight plan on PilotEdge
Remarks:
Altitude:
(Current/Filed)
24,000ft
Speed:
(Current/Filed)
377kts
Departed: 29-Jun-18 04:22 PM
Arrived: 29-Jun-18 05:10 PM
Distance/Time
Traveled:
196nm/0:47
Distance/Time
To Go:
Arrived

Flight Plot

Page will automatically refresh every two minutes.

Flight plan parsing failed; only flown route is shown


Map Options




Map Legend


Flown Route
Filed Route
Departure Airport
Arrival Airport
Navaid (VOR, NDB)
Fix

Horizontal Profiles

Position Reports

Time Latitude Longitude Heading Altitude Ground
Speed
29-Jun-18 15:52 35.161279 -114.556813 174 644ft 0kts
29-Jun-18 15:53 35.161279 -114.556813 174 644ft 0kts
29-Jun-18 15:54 35.161279 -114.556813 174 644ft 0kts
29-Jun-18 15:55 35.161279 -114.556813 174 644ft 0kts
29-Jun-18 15:56 35.161279 -114.556813 174 644ft 0kts
29-Jun-18 15:56 35.161279 -114.556813 174 644ft 0kts
29-Jun-18 15:58 35.161279 -114.556813 174 644ft 0kts
29-Jun-18 15:59 35.161279 -114.556813 174 644ft 0kts
29-Jun-18 16:00 35.161279 -114.556813 174 644ft 0kts
29-Jun-18 16:01 35.161279 -114.556813 174 644ft 0kts
29-Jun-18 16:01 35.161279 -114.556813 174 644ft 0kts
29-Jun-18 16:02 35.161279 -114.556813 174 644ft 0kts
29-Jun-18 16:03 35.161279 -114.556813 174 644ft 0kts
29-Jun-18 16:04 35.161279 -114.556813 174 644ft 0kts
29-Jun-18 16:05 35.161279 -114.556813 174 644ft 0kts
29-Jun-18 16:07 35.161279 -114.556813 174 644ft 0kts
29-Jun-18 16:07 35.161279 -114.556813 174 644ft 0kts
29-Jun-18 16:08 35.161279 -114.556813 174 644ft 0kts
29-Jun-18 16:09 35.161279 -114.556813 174 644ft 0kts
29-Jun-18 16:10 35.161279 -114.556813 174 644ft 0kts
29-Jun-18 16:11 35.161279 -114.556813 174 644ft 0kts
29-Jun-18 16:12 35.161279 -114.556813 174 644ft 0kts
29-Jun-18 16:13 35.161279 -114.556813 174 644ft 0kts
29-Jun-18 16:14 35.161279 -114.556813 174 644ft 0kts
29-Jun-18 16:15 35.161279 -114.556813 174 644ft 0kts
29-Jun-18 16:16 35.160912 -114.556866 185 644ft 8kts
29-Jun-18 16:17 35.159906 -114.558395 358 644ft 11kts
29-Jun-18 16:18 35.164691 -114.558735 356 644ft 18kts
29-Jun-18 16:19 35.166169 -114.559543 265 644ft 11kts
29-Jun-18 16:20 35.165864 -114.560184 176 644ft 0kts
29-Jun-18 16:21 35.165680 -114.560171 176 644ft 19kts
29-Jun-18 16:22 35.126791 -114.558383 176 2108ft 217kts
29-Jun-18 16:23 35.063923 -114.551856 175 5778ft 226kts
29-Jun-18 16:24 34.998243 -114.544078 170 7020ft 259kts
29-Jun-18 16:25 34.925975 -114.521281 168 7570ft 254kts
29-Jun-18 16:26 34.861001 -114.504804 168 11485ft 250kts
29-Jun-18 16:27 34.792598 -114.507778 217 15724ft 261kts
29-Jun-18 16:28 34.770917 -114.589646 271 19524ft 275kts
29-Jun-18 16:29 34.773192 -114.685660 271 22572ft 304kts
29-Jun-18 16:30 34.775620 -114.799869 271 23812ft 387kts
29-Jun-18 16:31 34.778190 -114.924217 271 23791ft 371kts
29-Jun-18 16:32 34.781673 -115.051187 272 23795ft 378kts
29-Jun-18 16:33 34.784778 -115.179403 271 23799ft 379kts
29-Jun-18 16:34 34.787037 -115.307127 271 23813ft 374kts
29-Jun-18 16:35 34.789092 -115.432944 271 23827ft 370kts
29-Jun-18 16:36 34.791007 -115.557563 271 23841ft 369kts
29-Jun-18 16:37 34.792801 -115.682543 271 23855ft 368kts
29-Jun-18 16:38 34.794458 -115.806874 271 23866ft 368kts
29-Jun-18 16:39 34.795989 -115.931496 271 23876ft 368kts
29-Jun-18 16:40 34.797396 -116.056397 271 23875ft 369kts
29-Jun-18 16:41 34.798679 -116.181211 271 23873ft 369kts
29-Jun-18 16:42 34.799833 -116.306167 271 23920ft 369kts
29-Jun-18 16:43 34.800850 -116.430362 271 23905ft 367kts
29-Jun-18 16:44 34.790880 -116.554360 263 23884ft 368kts
29-Jun-18 16:45 34.778397 -116.677788 264 23861ft 368kts
29-Jun-18 16:46 34.766154 -116.801518 264 23849ft 368kts
29-Jun-18 16:47 34.753778 -116.925181 264 23868ft 368kts
29-Jun-18 16:48 34.741300 -117.048630 264 23904ft 368kts
29-Jun-18 16:49 34.728686 -117.172097 264 23930ft 368kts
29-Jun-18 16:50 34.715931 -117.295660 264 23459ft 362kts
29-Jun-18 16:51 34.703073 -117.418986 264 21468ft 367kts
29-Jun-18 16:52 34.690291 -117.540385 264 19474ft 358kts
29-Jun-18 16:53 34.677696 -117.658848 264 17471ft 345kts
29-Jun-18 16:54 34.665593 -117.771676 263 15555ft 331kts
29-Jun-18 16:55 34.653679 -117.881817 263 13652ft 325kts
29-Jun-18 16:56 34.642099 -117.987914 263 11811ft 303kts
29-Jun-18 16:57 34.628713 -118.087200 255 10212ft 289kts
29-Jun-18 16:58 34.607739 -118.181296 255 9030ft 283kts
29-Jun-18 16:59 34.587814 -118.270631 255 9004ft 274kts
29-Jun-18 17:00 34.568829 -118.355396 255 8374ft 247kts
29-Jun-18 17:01 34.550957 -118.435080 255 8042ft 245kts
29-Jun-18 17:02 34.533087 -118.514408 255 8062ft 243kts
29-Jun-18 17:03 34.493815 -118.577725 198 8063ft 248kts
29-Jun-18 17:04 34.431534 -118.561251 145 7306ft 242kts
29-Jun-18 17:05 34.377993 -118.513753 142 5761ft 238kts
29-Jun-18 17:06 34.328262 -118.467041 139 4931ft 228kts
29-Jun-18 17:07 34.290828 -118.420008 132 3581ft 177kts
29-Jun-18 17:08 34.262058 -118.383403 143 2210ft 169kts
29-Jun-18 17:09 34.224480 -118.363884 167 1090ft 125kts
29-Jun-18 17:10 34.199104 -118.356905 193 724ft 13kts
29-Jun-18 17:11 34.199066 -118.360290 352 724ft 11kts
29-Jun-18 17:12 34.200430 -118.359332 21 724ft 0kts
29-Jun-18 17:13 34.200430 -118.359332 21 724ft 0kts
29-Jun-18 17:14 34.200430 -118.359332 21 724ft 0kts
29-Jun-18 17:15 34.200430 -118.359332 21 724ft 0kts
29-Jun-18 17:16 34.200430 -118.359332 21 724ft 0kts
29-Jun-18 17:17 34.200430 -118.359332 21 724ft 0kts
29-Jun-18 17:18 34.200430 -118.359332 21 724ft 0kts
29-Jun-18 17:19 34.200430 -118.359332 21 724ft 0kts
29-Jun-18 17:20 34.200430 -118.359332 21 724ft 0kts

Navigation Log

Ident Type
Flight plan parsing failed, navigation log unavailable